createdAt,value
2022-08-30T00:02:10.851Z,16.10
2022-08-30T00:04:40.438Z,16.07
2022-08-30T00:07:08.586Z,16.00
2022-08-30T00:09:36.747Z,15.95
2022-08-30T00:12:05.570Z,15.97
2022-08-30T00:14:33.761Z,15.92
2022-08-30T00:17:01.858Z,15.89
2022-08-30T00:19:30.012Z,15.88
2022-08-30T00:21:59.568Z,15.82
2022-08-30T00:24:27.875Z,15.80
2022-08-30T00:26:56.059Z,15.75
2022-08-30T00:29:24.220Z,15.70
2022-08-30T00:31:52.368Z,15.67
2022-08-30T00:34:20.458Z,15.66
2022-08-30T00:36:48.646Z,15.72
2022-08-30T00:39:18.404Z,15.73
2022-08-30T00:41:46.858Z,15.75
2022-08-30T00:44:14.966Z,15.74
2022-08-30T00:46:43.105Z,15.75
2022-08-30T00:49:12.913Z,15.71
2022-08-30T00:51:42.480Z,15.70
2022-08-30T00:54:10.726Z,15.76
2022-08-30T00:56:40.241Z,15.80
2022-08-30T00:59:09.657Z,15.82
2022-08-30T01:01:37.936Z,15.83
2022-08-30T01:04:08.763Z,15.87
2022-08-30T01:06:37.511Z,15.86
2022-08-30T01:09:06.041Z,15.81
2022-08-30T01:11:35.522Z,15.86
2022-08-30T01:14:06.055Z,15.85
2022-08-30T01:16:35.751Z,15.90
2022-08-30T01:19:04.821Z,15.92
2022-08-30T01:21:38.179Z,15.92
2022-08-30T01:24:08.584Z,15.88
2022-08-30T01:26:40.965Z,15.88
2022-08-30T01:29:12.361Z,15.87
2022-08-30T01:31:40.495Z,15.81
2022-08-30T01:34:09.341Z,15.72
2022-08-30T01:36:44.961Z,15.70
2022-08-30T01:39:17.064Z,15.65
2022-08-30T01:41:45.323Z,15.70
2022-08-30T01:44:14.427Z,15.68
2022-08-30T01:46:46.172Z,15.69
2022-08-30T01:49:16.606Z,15.67
2022-08-30T01:51:45.073Z,15.58
2022-08-30T01:54:14.832Z,15.58
2022-08-30T01:56:43.038Z,15.58
2022-08-30T01:59:11.210Z,15.61
2022-08-30T02:01:40.098Z,15.57
2022-08-30T02:04:10.072Z,15.56
2022-08-30T02:06:40.172Z,15.53
2022-08-30T02:09:08.665Z,15.51
2022-08-30T02:11:38.484Z,15.48
2022-08-30T02:14:07.380Z,15.21
2022-08-30T02:16:35.600Z,15.43
2022-08-30T02:19:03.901Z,15.11
2022-08-30T02:21:32.081Z,15.36
2022-08-30T02:24:00.343Z,15.28
2022-08-30T02:26:28.540Z,15.17
2022-08-30T02:29:00.160Z,15.20
2022-08-30T02:31:28.339Z,15.16
2022-08-30T02:33:56.543Z,15.19
2022-08-30T02:36:25.258Z,15.07
2022-08-30T02:38:53.475Z,15.07
2022-08-30T02:41:23.595Z,15.08
2022-08-30T02:43:52.448Z,15.05
2022-08-30T02:46:22.086Z,15.03
2022-08-30T02:48:50.330Z,14.97
2022-08-30T02:51:18.583Z,14.96
2022-08-30T02:53:47.041Z,14.87
2022-08-30T02:56:15.978Z,14.90
2022-08-30T02:58:45.086Z,14.89
2022-08-30T03:01:15.170Z,14.87
2022-08-30T03:03:45.771Z,14.84
2022-08-30T03:06:14.048Z,14.83
2022-08-30T03:08:42.474Z,14.67
2022-08-30T03:11:10.584Z,14.79
2022-08-30T03:13:38.760Z,14.74
2022-08-30T03:16:06.920Z,14.72
2022-08-30T03:18:35.071Z,14.68
2022-08-30T03:21:06.813Z,14.70
2022-08-30T03:23:34.917Z,14.62
2022-08-30T03:26:03.036Z,14.69
2022-08-30T03:28:31.164Z,14.66
2022-08-30T03:30:59.296Z,14.63
2022-08-30T03:33:27.593Z,14.59
2022-08-30T03:35:55.760Z,14.53
2022-08-30T03:38:26.072Z,14.32
2022-08-30T03:40:54.265Z,14.47
2022-08-30T03:43:22.540Z,14.48
2022-08-30T03:45:51.990Z,14.38
2022-08-30T03:48:20.224Z,14.46
2022-08-30T03:50:48.389Z,14.43
2022-08-30T03:53:16.568Z,14.42
2022-08-30T03:55:46.194Z,14.42
2022-08-30T03:58:15.178Z,14.36
2022-08-30T04:00:47.549Z,14.36
2022-08-30T04:03:16.600Z,14.34
2022-08-30T04:05:45.580Z,14.12
2022-08-30T04:08:13.768Z,14.35
2022-08-30T04:10:41.883Z,13.48
2022-08-30T04:13:11.434Z,14.27
2022-08-30T04:15:39.973Z,14.24
2022-08-30T04:18:08.258Z,14.27
2022-08-30T04:20:36.526Z,13.39
2022-08-30T04:23:07.161Z,14.20
2022-08-30T04:25:36.252Z,14.19
2022-08-30T04:28:05.491Z,14.05
2022-08-30T04:30:35.279Z,14.20
2022-08-30T04:33:03.342Z,14.19
2022-08-30T04:35:31.412Z,14.21
2022-08-30T04:37:59.867Z,14.23
2022-08-30T04:40:28.147Z,14.23
2022-08-30T04:42:56.579Z,14.28
2022-08-30T04:45:26.565Z,14.32
2022-08-30T04:47:57.232Z,14.36
2022-08-30T04:50:25.670Z,14.38
2022-08-30T04:52:54.202Z,14.36
2022-08-30T04:55:24.760Z,14.39
2022-08-30T04:57:53.307Z,14.28
2022-08-30T05:00:22.016Z,14.34
2022-08-30T05:02:51.157Z,14.38
2022-08-30T05:05:38.570Z,14.21
2022-08-30T05:08:07.369Z,14.36
2022-08-30T05:10:35.882Z,14.41
2022-08-30T05:13:03.972Z,14.46
2022-08-30T05:15:32.093Z,14.47
2022-08-30T05:18:00.362Z,14.44
2022-08-30T05:20:30.244Z,14.57
2022-08-30T05:22:58.297Z,14.57
2022-08-30T05:25:27.791Z,14.62
2022-08-30T05:27:56.132Z,14.67
2022-08-30T05:30:25.607Z,14.76
2022-08-30T05:32:54.485Z,14.81
2022-08-30T05:35:25.729Z,14.86
2022-08-30T05:37:56.242Z,14.96
2022-08-30T05:40:24.865Z,15.05
2022-08-30T05:42:53.125Z,15.09
2022-08-30T05:45:21.682Z,15.04
2022-08-30T05:47:50.337Z,15.18
2022-08-30T05:50:18.505Z,15.19
2022-08-30T05:52:46.686Z,15.37
2022-08-30T05:55:16.477Z,15.46
2022-08-30T05:57:44.585Z,15.54
2022-08-30T06:00:19.394Z,15.66
2022-08-30T06:02:48.133Z,15.75
2022-08-30T06:05:17.214Z,15.87
2022-08-30T06:07:45.477Z,15.97
2022-08-30T06:10:15.258Z,16.08
2022-08-30T06:12:45.509Z,16.15
2022-08-30T06:15:13.852Z,16.22
2022-08-30T06:17:41.944Z,16.34
2022-08-30T06:20:11.921Z,16.44
2022-08-30T06:22:40.102Z,16.39
2022-08-30T06:25:09.642Z,16.57
2022-08-30T06:27:39.554Z,16.67
2022-08-30T06:30:11.045Z,16.75
2022-08-30T06:32:39.612Z,16.88
2022-08-30T06:35:08.992Z,16.99
2022-08-30T06:37:37.577Z,17.09
2022-08-30T06:40:06.827Z,17.06
2022-08-30T06:42:35.122Z,17.36
2022-08-30T06:45:11.113Z,17.52
2022-08-30T06:47:40.072Z,17.63
2022-08-30T06:50:11.777Z,17.72
2022-08-30T06:52:42.452Z,17.88
2022-08-30T06:55:11.859Z,18.04
2022-08-30T06:57:40.330Z,18.15
2022-08-30T07:00:12.587Z,18.28
2022-08-30T07:02:41.492Z,18.40
2022-08-30T07:05:15.329Z,18.56
2022-08-30T07:07:46.213Z,18.63
2022-08-30T07:10:14.908Z,18.59
2022-08-30T07:12:43.057Z,18.84
2022-08-30T07:15:13.182Z,19.02
2022-08-30T07:17:58.723Z,19.18
2022-08-30T07:20:26.864Z,19.25
2022-08-30T07:22:54.964Z,19.44
2022-08-30T07:25:23.152Z,19.47
2022-08-30T07:27:52.059Z,19.64
2022-08-30T07:30:21.782Z,19.81
2022-08-30T07:32:50.147Z,19.86
2022-08-30T07:35:18.362Z,19.92
2022-08-30T07:37:46.716Z,20.01
2022-08-30T07:40:15.127Z,20.04
2022-08-30T07:42:43.344Z,20.25
2022-08-30T07:45:12.650Z,20.27
2022-08-30T07:47:42.311Z,20.42
2022-08-30T07:50:10.528Z,20.46
2022-08-30T07:52:39.074Z,20.56
2022-08-30T07:55:08.557Z,20.67
2022-08-30T07:57:36.681Z,20.74
2022-08-30T08:00:06.532Z,20.70
2022-08-30T08:02:37.093Z,20.77
2022-08-30T08:05:09.661Z,20.93
2022-08-30T08:07:39.274Z,21.15
2022-08-30T08:10:09.152Z,21.11
2022-08-30T08:12:38.251Z,21.22
2022-08-30T08:15:08.955Z,21.25
2022-08-30T08:17:37.252Z,21.33
2022-08-30T08:20:07.945Z,21.62
2022-08-30T08:22:39.874Z,21.74
2022-08-30T08:25:09.380Z,21.67
2022-08-30T08:27:37.590Z,21.88
2022-08-30T08:30:06.719Z,21.76
2022-08-30T08:32:35.225Z,22.06
2022-08-30T08:35:05.314Z,22.08
2022-08-30T08:37:34.873Z,21.85
2022-08-30T08:40:03.076Z,21.80
2022-08-30T08:42:38.379Z,21.77
2022-08-30T08:45:11.513Z,21.86
2022-08-30T08:47:42.397Z,22.08
2022-08-30T08:50:17.308Z,22.04
2022-08-30T08:53:13.304Z,22.02
2022-08-30T08:55:49.358Z,22.18
2022-08-30T08:58:24.700Z,22.30
2022-08-30T09:00:53.360Z,22.53
2022-08-30T09:03:23.187Z,22.44
2022-08-30T09:05:52.420Z,22.79
2022-08-30T09:08:24.386Z,22.80
2022-08-30T09:10:57.210Z,22.94
2022-08-30T09:13:27.958Z,22.83
2022-08-30T09:15:59.396Z,22.86
2022-08-30T09:18:47.465Z,22.92
2022-08-30T09:21:23.406Z,23.15
2022-08-30T09:24:01.300Z,23.22
2022-08-30T09:26:31.197Z,23.34
2022-08-30T09:29:01.095Z,23.59
2022-08-30T09:31:31.058Z,23.64
2022-08-30T09:34:03.619Z,23.88
2022-08-30T09:36:35.454Z,23.72
2022-08-30T09:39:07.667Z,23.94
2022-08-30T09:41:40.355Z,24.01
2022-08-30T09:44:12.040Z,24.26
2022-08-30T09:46:45.584Z,24.43
2022-08-30T09:49:29.707Z,24.97
2022-08-30T09:52:18.787Z,25.15
2022-08-30T09:54:59.404Z,27.00
2022-08-30T09:57:35.670Z,28.92
2022-08-30T10:00:17.353Z,29.27
2022-08-30T10:03:03.168Z,30.20
2022-08-30T10:05:38.396Z,30.46
2022-08-30T10:08:15.892Z,30.36
2022-08-30T10:10:52.777Z,31.75
2022-08-30T10:13:47.094Z,32.03
2022-08-30T10:16:23.982Z,29.79
2022-08-30T10:18:55.831Z,29.33
2022-08-30T10:21:28.056Z,28.66
2022-08-30T10:23:59.845Z,27.17
2022-08-30T10:26:32.921Z,26.97
2022-08-30T10:29:03.748Z,27.08
2022-08-30T10:31:38.647Z,27.28
2022-08-30T10:34:10.210Z,27.28
2022-08-30T10:36:44.103Z,27.38
2022-08-30T10:39:19.776Z,27.45
2022-08-30T10:41:51.865Z,27.14
2022-08-30T10:44:25.210Z,26.94
2022-08-30T10:47:02.735Z,26.66
2022-08-30T10:49:33.808Z,26.56
2022-08-30T10:52:10.177Z,26.82
2022-08-30T10:54:42.959Z,27.17
2022-08-30T10:57:12.975Z,27.53
2022-08-30T10:59:46.576Z,27.78
2022-08-30T11:03:03.115Z,27.40
2022-08-30T11:05:47.726Z,26.81
2022-08-30T11:08:30.126Z,26.75
2022-08-30T11:11:03.994Z,26.90
2022-08-30T11:13:36.971Z,27.33
2022-08-30T11:16:07.522Z,27.34
2022-08-30T11:18:43.966Z,26.99
2022-08-30T11:21:27.783Z,27.26
2022-08-30T11:24:01.030Z,27.51
2022-08-30T11:26:58.483Z,27.82
2022-08-30T11:29:40.107Z,27.65
2022-08-30T11:32:27.897Z,26.89
2022-08-30T11:35:00.909Z,26.90
2022-08-30T11:37:39.940Z,26.96
2022-08-30T11:40:14.247Z,27.49
2022-08-30T11:42:46.787Z,27.25
2022-08-30T11:45:54.830Z,27.07
2022-08-30T11:48:53.874Z,27.07
2022-08-30T11:52:14.850Z,27.05
2022-08-30T11:54:53.049Z,26.55
2022-08-30T11:57:30.525Z,26.14
2022-08-30T12:00:07.550Z,25.85
2022-08-30T12:02:48.225Z,25.71
2022-08-30T12:05:55.177Z,25.74
2022-08-30T12:08:56.467Z,25.80
2022-08-30T12:11:56.388Z,25.35
2022-08-30T12:14:47.823Z,25.15
2022-08-30T12:17:52.366Z,25.26
2022-08-30T12:20:32.641Z,25.23
2022-08-30T12:23:16.817Z,25.42
2022-08-30T12:25:46.770Z,25.71
2022-08-30T12:28:22.894Z,25.90
2022-08-30T12:30:51.377Z,25.54
2022-08-30T12:33:29.168Z,25.58
2022-08-30T12:35:59.803Z,26.08
2022-08-30T12:38:29.803Z,25.98
2022-08-30T12:41:05.625Z,26.30
2022-08-30T12:43:40.267Z,26.35
2022-08-30T12:46:15.104Z,26.36
2022-08-30T12:48:44.546Z,26.20
2022-08-30T12:51:28.900Z,26.61
2022-08-30T12:54:05.459Z,26.74
2022-08-30T12:56:51.818Z,27.19
2022-08-30T12:59:52.837Z,27.18
2022-08-30T13:02:24.261Z,27.32
2022-08-30T13:04:55.512Z,27.23
2022-08-30T13:07:33.553Z,27.27
2022-08-30T13:10:06.793Z,27.29
2022-08-30T13:12:38.711Z,27.39
2022-08-30T13:15:13.709Z,27.46
2022-08-30T13:17:42.672Z,27.37
2022-08-30T13:20:23.736Z,27.85
2022-08-30T13:23:10.148Z,28.06
2022-08-30T13:25:40.205Z,28.27
2022-08-30T13:28:09.475Z,28.41
2022-08-30T13:30:38.831Z,28.08
2022-08-30T13:33:07.092Z,28.26
2022-08-30T13:35:35.440Z,28.46
2022-08-30T13:38:04.348Z,28.43
2022-08-30T13:40:34.048Z,28.34
2022-08-30T13:43:02.454Z,28.57
2022-08-30T13:45:46.853Z,28.08
2022-08-30T13:48:17.527Z,28.00
2022-08-30T13:50:53.762Z,27.79
2022-08-30T13:56:14.048Z,27.74
2022-08-30T13:58:42.636Z,27.63
2022-08-30T14:01:10.936Z,27.92
2022-08-30T14:04:13.317Z,27.97
2022-08-30T14:06:34.025Z,27.68
2022-08-30T14:09:04.624Z,27.56
2022-08-30T14:11:36.094Z,27.27
2022-08-30T14:14:36.488Z,27.02
2022-08-30T14:16:54.433Z,26.90
2022-08-30T14:19:23.019Z,27.24
2022-08-30T14:21:51.360Z,27.37
2022-08-30T14:24:21.529Z,27.49
2022-08-30T14:26:53.617Z,27.78
2022-08-30T14:29:24.834Z,27.78
2022-08-30T14:31:53.543Z,27.71
2022-08-30T14:34:23.129Z,27.81
2022-08-30T14:36:51.500Z,27.88
2022-08-30T14:39:21.318Z,27.88
2022-08-30T14:41:53.727Z,27.87
2022-08-30T14:44:24.139Z,27.94
2022-08-30T14:46:52.418Z,28.17
2022-08-30T14:49:22.230Z,27.89
2022-08-30T14:51:51.816Z,27.61
2022-08-30T14:54:23.175Z,27.34
2022-08-30T14:56:55.764Z,27.19
2022-08-30T14:59:25.385Z,26.89
2022-08-30T15:01:53.806Z,26.43
2022-08-30T15:04:22.146Z,26.55
2022-08-30T15:06:52.884Z,26.36
2022-08-30T15:09:23.989Z,26.27
2022-08-30T15:11:58.623Z,26.44
2022-08-30T15:14:28.386Z,26.77
2022-08-30T15:16:58.656Z,26.89
2022-08-30T15:19:27.770Z,26.88
2022-08-30T15:22:00.646Z,27.09
2022-08-30T15:24:30.110Z,27.43
2022-08-30T15:27:00.783Z,27.72
2022-08-30T15:29:29.894Z,27.74
2022-08-30T15:32:00.680Z,27.66
2022-08-30T15:34:29.050Z,27.56
2022-08-30T15:36:57.866Z,27.62
2022-08-30T15:39:26.058Z,27.69
2022-08-30T15:42:00.323Z,27.78
2022-08-30T15:44:31.442Z,27.87
2022-08-30T15:47:00.004Z,27.62
2022-08-30T15:49:28.958Z,27.47
2022-08-30T15:52:02.613Z,27.20
2022-08-30T15:54:32.470Z,27.14
2022-08-30T15:57:02.040Z,27.43
2022-08-30T15:59:35.941Z,27.46
2022-08-30T16:02:04.167Z,27.16
2022-08-30T16:04:34.719Z,27.16
2022-08-30T16:07:04.265Z,27.38
2022-08-30T16:09:33.831Z,27.53
2022-08-30T16:12:04.664Z,27.48
2022-08-30T16:14:36.189Z,27.54
2022-08-30T16:17:05.554Z,27.42
2022-08-30T16:19:33.703Z,27.17
2022-08-30T16:22:02.205Z,27.19
2022-08-30T16:24:30.488Z,27.13
2022-08-30T16:26:58.722Z,27.10
2022-08-30T16:29:28.881Z,27.12
2022-08-30T16:31:59.306Z,27.11
2022-08-30T16:34:28.358Z,27.05
2022-08-30T16:36:57.673Z,26.92
2022-08-30T16:39:25.859Z,26.27
2022-08-30T16:41:54.007Z,26.02
2022-08-30T16:44:22.259Z,25.54
2022-08-30T16:46:54.889Z,25.08
2022-08-30T16:49:25.473Z,24.56
2022-08-30T16:51:53.968Z,24.11
2022-08-30T16:54:22.848Z,23.71
2022-08-30T16:56:51.247Z,23.33
2022-08-30T16:59:19.691Z,22.75
2022-08-30T17:01:48.358Z,22.65
2022-08-30T17:04:19.735Z,22.32
2022-08-30T17:06:52.297Z,22.05
2022-08-30T17:09:33.863Z,21.87
2022-08-30T17:12:15.864Z,21.78
2022-08-30T17:14:57.555Z,21.70
2022-08-30T17:17:43.332Z,21.64
2022-08-30T17:20:27.886Z,21.52
2022-08-30T17:23:12.865Z,21.37
2022-08-30T17:25:55.885Z,21.26
2022-08-30T17:28:38.189Z,21.12
2022-08-30T17:31:21.912Z,20.94
2022-08-30T17:34:05.914Z,20.71
2022-08-30T17:36:47.884Z,20.90
2022-08-30T17:39:34.875Z,20.89
2022-08-30T17:42:20.876Z,20.76
2022-08-30T17:45:06.859Z,20.59
2022-08-30T17:47:53.884Z,20.28
2022-08-30T17:50:37.884Z,20.03
2022-08-30T17:53:21.882Z,19.97
2022-08-30T17:56:10.886Z,19.94
2022-08-30T17:58:57.889Z,19.89
2022-08-30T18:01:42.209Z,19.88
2022-08-30T18:04:27.919Z,19.85
2022-08-30T18:07:12.928Z,19.83
2022-08-30T18:10:00.900Z,19.76
2022-08-30T18:12:47.886Z,19.54
2022-08-30T18:15:35.894Z,19.65
2022-08-30T18:18:24.259Z,19.59
2022-08-30T18:21:11.890Z,19.49
2022-08-30T18:23:55.891Z,19.42
2022-08-30T18:26:38.903Z,19.39
2022-08-30T18:29:30.515Z,19.41
2022-08-30T18:32:16.902Z,19.40
2022-08-30T18:34:56.916Z,19.09
2022-08-30T18:37:42.910Z,19.18
2022-08-30T18:40:26.945Z,19.03
2022-08-30T18:43:10.937Z,18.98
2022-08-30T18:45:49.982Z,18.87
2022-08-30T18:48:29.004Z,18.82
2022-08-30T18:51:17.964Z,18.70
2022-08-30T18:54:07.970Z,18.66
2022-08-30T18:56:51.997Z,18.62
2022-08-30T18:59:37.973Z,18.49
2022-08-30T19:02:27.671Z,18.35
2022-08-30T19:05:13.974Z,18.31
2022-08-30T19:07:57.975Z,18.31
2022-08-30T19:10:43.985Z,18.14
2022-08-30T19:13:23.995Z,17.91
2022-08-30T19:16:12.108Z,17.89
2022-08-30T19:18:59.984Z,17.69
2022-08-30T19:21:45.984Z,17.98
2022-08-30T19:24:29.996Z,17.96
2022-08-30T19:27:16.003Z,18.04
2022-08-30T19:30:03.993Z,17.88
2022-08-30T19:32:49.993Z,17.96
2022-08-30T19:35:36.006Z,17.96
2022-08-30T19:38:18.990Z,17.92
2022-08-30T19:41:06.993Z,17.64
2022-08-30T19:43:52.990Z,17.90
2022-08-30T19:46:36.987Z,17.87
2022-08-30T19:49:22.993Z,17.89
2022-08-30T19:52:10.004Z,17.82
2022-08-30T19:54:55.991Z,17.82
2022-08-30T19:57:40.008Z,17.81
2022-08-30T20:00:26.007Z,17.75
2022-08-30T20:03:14.060Z,17.77
2022-08-30T20:06:02.005Z,17.61
2022-08-30T20:08:50.993Z,17.45
2022-08-30T20:11:44.052Z,17.46
2022-08-30T20:14:28.323Z,17.51
2022-08-30T20:17:12.073Z,17.30
2022-08-30T20:20:04.993Z,17.47
2022-08-30T20:22:50.866Z,17.45
2022-08-30T20:25:56.714Z,17.43
2022-08-30T20:28:39.002Z,17.39
2022-08-30T20:31:24.132Z,17.35
2022-08-30T20:34:10.997Z,17.29
2022-08-30T20:36:50.019Z,17.23
2022-08-30T20:39:26.471Z,17.21
2022-08-30T20:42:11.042Z,17.16
2022-08-30T20:44:56.049Z,17.16
2022-08-30T20:47:43.111Z,17.10
2022-08-30T20:50:28.043Z,17.02
2022-08-30T20:53:13.041Z,16.93
2022-08-30T20:55:59.050Z,16.95
2022-08-30T20:58:47.063Z,16.87
2022-08-30T21:01:32.110Z,16.84
2022-08-30T21:04:17.065Z,16.87
2022-08-30T21:07:02.071Z,16.76
2022-08-30T21:09:47.064Z,16.86
2022-08-30T21:12:33.070Z,16.83
2022-08-30T21:15:37.217Z,16.77
2022-08-30T21:18:24.069Z,16.66
2022-08-30T21:21:18.093Z,16.59
2022-08-30T21:24:04.087Z,16.48
2022-08-30T21:26:48.096Z,16.43
2022-08-30T21:29:34.096Z,16.33
2022-08-30T21:32:21.084Z,16.22
2022-08-30T21:35:20.085Z,16.23
2022-08-30T21:38:04.087Z,16.01
2022-08-30T21:40:50.097Z,16.26
2022-08-30T21:43:34.087Z,16.29
2022-08-30T21:46:20.227Z,16.29
2022-08-30T21:49:07.092Z,16.02
2022-08-30T21:51:54.097Z,16.26
2022-08-30T21:54:42.093Z,16.21
2022-08-30T21:57:28.098Z,16.02
2022-08-30T22:00:12.093Z,15.92
2022-08-30T22:02:58.144Z,16.03
2022-08-30T22:05:46.120Z,16.05
2022-08-30T22:08:36.100Z,16.05
2022-08-30T22:11:20.095Z,16.01
2022-08-30T22:14:07.084Z,15.96
2022-08-30T22:16:52.148Z,15.95
2022-08-30T22:19:42.091Z,15.94
2022-08-30T22:22:31.090Z,16.00
2022-08-30T22:25:17.099Z,15.99
2022-08-30T22:28:01.090Z,15.96
2022-08-30T22:30:50.097Z,15.70
2022-08-30T22:33:34.101Z,15.93
2022-08-30T22:36:20.102Z,15.89
2022-08-30T22:39:08.093Z,15.82
2022-08-30T22:41:52.625Z,15.77
2022-08-30T22:44:35.095Z,15.77
2022-08-30T22:47:21.103Z,15.77
2022-08-30T22:50:05.094Z,15.75
2022-08-30T22:52:51.100Z,15.71
2022-08-30T22:55:39.130Z,15.68
2022-08-30T22:58:25.110Z,15.68
2022-08-30T23:01:09.128Z,15.64
2022-08-30T23:03:55.097Z,15.63
2022-08-30T23:06:39.099Z,15.57
2022-08-30T23:09:25.107Z,15.59
2022-08-30T23:12:12.104Z,15.60
2022-08-30T23:14:58.103Z,15.55
2022-08-30T23:17:42.105Z,15.56
2022-08-30T23:20:28.101Z,15.55
2022-08-30T23:23:07.272Z,15.44
2022-08-30T23:26:06.112Z,15.36
2022-08-30T23:29:06.108Z,15.47
2022-08-30T23:32:05.151Z,15.36
2022-08-30T23:35:03.125Z,15.40
2022-08-30T23:38:02.118Z,15.36
2022-08-30T23:40:59.105Z,15.37
2022-08-30T23:43:58.116Z,15.34
2022-08-30T23:46:58.117Z,15.08
2022-08-30T23:49:57.109Z,15.25
2022-08-30T23:52:54.140Z,15.24
2022-08-30T23:55:53.114Z,15.22
2022-08-30T23:58:51.104Z,15.22
